Time;durP1;ratioP1;P1;durP2;ratioP2;P2;SDS_P1;SDS_P2;PMS_P1;PMS_P2;Temp;Humidity;BMP_temperature;BMP_pressure;BME280_temperature;BME280_humidity;BME280_pressure;Samples;Min_cycle;Max_cycle;Signal;HPM_P1;HPM_P2
2022/02/09 00:09:54;;;;;;;5.32;2.28;;;;;;;-142.75;100.00;78462.44;5051573;28;20028;-67
2022/02/09 00:12:26;;;;;;;6.55;2.30;;;;;;;-142.75;100.00;78464.41;5033641;28;20020;-67
2022/02/09 00:15:15;;;;;;;5.18;2.50;;;;;;;-142.75;100.00;78468.34;5051681;28;20502;-68
2022/02/09 00:17:49;;;;;;;6.53;2.28;;;;;;;-142.75;100.00;78464.41;5033383;28;20040;-67
2022/02/09 00:25:35;;;;;;;4.95;2.50;;;;;;;-142.75;100.00;78460.47;5042647;28;20279;-67
2022/02/09 00:59:24;;;;;;;10.48;4.00;;;;;;;-142.75;100.00;78464.41;5030749;28;20106;-67
2022/02/09 01:43:33;;;;;;;10.15;3.60;;;;;;;-142.75;100.00;78456.53;5049630;28;20064;-67
2022/02/09 01:56:31;;;;;;;9.65;4.10;;;;;;;-142.75;100.00;78432.91;5029922;28;20040;-68
2022/02/09 01:58:56;;;;;;;9.07;4.22;;;;;;;-142.75;100.00;78430.94;5029813;28;20457;-67
2022/02/09 02:01:22;;;;;;;5.47;3.67;;;;;;;-142.75;100.00;78432.91;5032213;28;20108;-67
2022/02/09 02:03:48;;;;;;;7.03;3.75;;;;;;;-142.75;100.00;78432.91;5050167;28;20099;-67
2022/02/09 02:06:15;;;;;;;5.55;4.18;;;;;;;-142.75;100.00;78427.00;5031709;28;20023;-67
2022/02/09 02:08:41;;;;;;;7.45;3.88;;;;;;;-142.75;100.00;78428.97;5049521;28;20140;-67
2022/02/09 02:18:29;;;;;;;8.10;4.28;;;;;;;-142.75;100.00;78415.19;5049643;28;20040;-67
2022/02/09 02:21:22;;;;;;;;;;;;;;;-142.75;100.00;78413.22;5032262;28;20024;-67
2022/02/09 02:34:31;;;;;;;8.32;4.65;;;;;;;-142.75;100.00;78405.34;5050100;28;20138;-66
2022/02/09 02:58:49;;;;;;;9.77;6.15;;;;;;;-142.75;100.00;78401.38;5032740;28;20529;-68
2022/02/09 03:11:51;;;;;;;8.57;5.57;;;;;;;-142.75;100.00;78395.47;5032877;28;20486;-67
2022/02/09 03:14:23;;;;;;;8.88;5.63;;;;;;;-142.75;100.00;78393.50;5032575;28;20112;-67
2022/02/09 03:16:53;;;;;;;9.77;5.80;;;;;;;-142.75;100.00;78399.44;5032369;28;20061;-66
2022/02/09 03:19:46;;;;;;;8.18;5.30;;;;;;;-142.75;100.00;78397.44;5032436;28;20651;-66
2022/02/09 03:22:21;;;;;;;7.50;5.63;;;;;;;-142.75;100.00;78401.38;5031273;28;20029;-66
2022/02/09 03:43:44;;;;;;;8.15;4.80;;;;;;;-142.75;100.00;78397.44;5031899;28;20418;-67
2022/02/09 03:49:05;;;;;;;7.10;5.13;;;;;;;-142.75;100.00;78387.59;5031995;28;20049;-67
2022/02/09 03:52:35;;;;;;;7.70;4.90;;;;;;;-142.75;100.00;78397.44;5031963;28;20025;-66
2022/02/09 03:57:00;;;;;;;7.93;5.15;;;;;;;-142.75;100.00;78391.53;5031870;28;20041;-67
2022/02/09 03:59:29;;;;;;;8.48;5.65;;;;;;;-142.75;100.00;78391.53;5030770;28;20067;-67
2022/02/09 04:01:54;;;;;;;7.68;5.50;;;;;;;-142.75;100.00;78393.50;5031498;28;20090;-66
2022/02/09 04:04:20;;;;;;;6.55;4.95;;;;;;;-142.75;100.00;78393.50;5032331;28;20531;-66
2022/02/09 04:06:50;;;;;;;7.80;5.82;;;;;;;-142.75;100.00;78399.44;5030505;28;20044;-67
2022/02/09 04:09:17;;;;;;;8.02;5.75;;;;;;;-142.75;100.00;78397.44;5030471;28;20025;-66
2022/02/09 04:11:53;;;;;;;8.30;5.72;;;;;;;-142.75;100.00;78403.38;5030286;28;20018;-67
2022/02/09 04:23:00;;;;;;;7.73;5.53;;;;;;;-142.75;100.00;78399.44;5031513;28;20424;-67
2022/02/09 04:39:06;;;;;;;8.02;5.68;;;;;;;-142.75;100.00;78401.38;4989346;28;20124;-66
2022/02/09 04:41:59;;;;;;;8.48;6.00;;;;;;;-142.75;100.00;78403.38;5022777;28;20045;-67
2022/02/09 04:44:39;;;;;;;9.80;5.50;;;;;;;-142.75;100.00;78399.44;5030740;28;20023;-66
2022/02/09 04:47:22;;;;;;;10.63;5.80;;;;;;;-142.75;100.00;78401.38;5032010;28;20020;-66
2022/02/09 04:50:01;;;;;;;9.05;5.93;;;;;;;-142.75;100.00;78389.56;5031940;28;20025;-66
2022/02/09 04:52:50;;;;;;;7.90;5.95;;;;;;;-142.75;100.00;78401.38;5031699;28;20022;-67
2022/02/09 04:55:34;;;;;;;8.20;6.32;;;;;;;-142.75;100.00;78397.44;5033946;28;20131;-66
2022/02/09 04:58:31;;;;;;;12.68;6.30;;;;;;;-142.75;100.00;78391.53;5031631;28;20091;-67
2022/02/09 05:03:36;;;;;;;9.27;5.77;;;;;;;-142.75;100.00;78399.44;5030819;28;20451;-65
2022/02/09 05:17:54;;;;;;;8.73;6.18;;;;;;;-142.75;100.00;78403.38;5030630;28;20076;-66
2022/02/09 05:21:03;;;;;;;8.07;5.33;;;;;;;-142.75;100.00;78415.19;5029844;28;20044;-67
2022/02/09 05:28:01;;;;;;;7.57;5.60;;;;;;;-142.75;100.00;78399.44;5030237;28;20116;-66
2022/02/09 05:30:27;;;;;;;10.57;5.17;;;;;;;-142.75;100.00;78417.16;5030227;28;20032;-67
2022/02/09 05:32:52;;;;;;;6.53;5.25;;;;;;;-142.75;100.00;78409.28;5029968;28;20026;-67
2022/02/09 05:35:21;;;;;;;10.97;5.57;;;;;;;-142.75;100.00;78419.13;5030785;28;20083;-66
2022/02/09 05:37:50;;;;;;;11.53;6.07;;;;;;;-142.75;100.00;78409.28;5029991;28;20292;-66
2022/02/09 05:40:15;;;;;;;8.70;5.47;;;;;;;-142.75;100.00;78425.03;5030088;28;20029;-66
2022/02/09 05:42:40;;;;;;;8.52;6.07;;;;;;;-142.75;100.00;78411.25;5029693;28;20025;-66
2022/02/09 05:45:09;;;;;;;8.10;5.88;;;;;;;-142.75;100.00;78409.28;5030261;28;20080;-66
2022/02/09 05:50:29;;;;;;;9.47;5.23;;;;;;;-142.75;100.00;78419.13;5029883;28;20409;-67
2022/02/09 05:55:48;;;;;;;8.37;6.17;;;;;;;-142.75;100.00;78425.03;5030289;28;20034;-66
2022/02/09 05:58:33;;;;;;;9.40;5.38;;;;;;;-142.75;100.00;78419.13;5029727;28;20025;-67
2022/02/09 06:00:59;;;;;;;10.80;5.73;;;;;;;-142.75;100.00;78421.09;5029993;28;20030;-66
2022/02/09 06:03:25;;;;;;;;;;;;;;;-142.75;100.00;78427.00;5030397;28;20036;-66
2022/02/09 06:05:50;;;;;;;9.07;5.97;;;;;;;-142.75;100.00;78417.16;5029948;28;19913;-66
2022/02/09 06:08:16;;;;;;;7.63;5.75;;;;;;;-142.75;100.00;78421.09;5029571;28;20057;-66
2022/02/09 06:10:47;;;;;;;10.52;5.85;;;;;;;-142.75;100.00;78432.91;5029855;28;20079;-66
2022/02/09 06:19:37;;;;;;;9.50;5.87;;;;;;;-142.75;100.00;78430.94;5020643;28;20036;-66
2022/02/09 06:21:36;;;;;;;7.50;5.43;;;;;;;-142.75;100.00;78425.03;5030046;28;20171;-67
2022/02/09 06:24:01;;;;;;;9.05;6.13;;;;;;;-142.75;100.00;78419.13;5032281;28;20535;-66
2022/02/09 06:26:27;;;;;;;7.37;5.50;;;;;;;-142.75;100.00;78423.06;5033557;28;20028;-67
2022/02/09 06:28:52;;;;;;;7.53;5.87;;;;;;;-142.75;100.00;78434.88;5033953;28;20275;-67
2022/02/09 06:31:17;;;;;;;8.10;6.38;;;;;;;-142.75;100.00;78430.94;5034151;28;20312;-66
2022/02/09 06:33:43;;;;;;;8.90;6.22;;;;;;;-142.75;100.00;78436.84;5034421;28;20021;-67
2022/02/09 06:36:10;;;;;;;11.38;6.72;;;;;;;-142.75;100.00;78436.84;5034081;28;20406;-67
2022/02/09 06:38:39;;;;;;;10.55;6.63;;;;;;;-142.75;100.00;78427.00;5033795;28;20037;-67
2022/02/09 06:41:07;;;;;;;9.70;7.23;;;;;;;-142.75;100.00;78432.91;5032422;28;20099;-66
2022/02/09 06:43:33;;;;;;;10.00;6.60;;;;;;;-142.75;100.00;78432.91;5032730;28;20061;-67
2022/02/09 06:45:58;;;;;;;10.82;6.65;;;;;;;-142.75;100.00;78428.97;5032680;28;20033;-66
2022/02/09 06:48:23;;;;;;;11.53;7.70;;;;;;;-142.75;100.00;78438.81;5032313;28;20029;-66
2022/02/09 06:50:56;;;;;;;11.05;7.63;;;;;;;-142.75;100.00;78442.75;5032744;28;20280;-66
2022/02/09 06:55:52;;;;;;;10.33;7.67;;;;;;;-142.75;100.00;78442.75;5031390;28;20095;-67
2022/02/09 06:58:21;;;;;;;10.57;7.37;;;;;;;-142.75;100.00;78448.66;5032310;28;20276;-67
2022/02/09 07:00:47;;;;;;;13.60;7.15;;;;;;;-142.75;100.00;78446.69;5032369;28;20044;-67
2022/02/09 07:03:13;;;;;;;12.90;6.72;;;;;;;-142.75;100.00;78444.72;5032402;28;20037;-67
2022/02/09 07:05:39;;;;;;;;;;;;;;;-142.75;100.00;78442.75;5032146;28;20025;-66
2022/02/09 07:08:04;;;;;;;9.33;6.33;;;;;;;-142.75;100.00;78444.72;5031044;28;20371;-67
2022/02/09 07:10:29;;;;;;;9.35;7.13;;;;;;;-142.75;100.00;78448.66;5031438;28;20021;-67
2022/02/09 07:12:54;;;;;;;9.82;7.15;;;;;;;-142.75;100.00;78464.41;5031276;28;20025;-66
2022/02/09 07:15:28;;;;;;;11.35;7.63;;;;;;;-142.75;100.00;78452.59;5031364;28;20053;-66
2022/02/09 07:17:54;;;;;;;9.60;6.77;;;;;;;-142.75;100.00;78450.63;5029827;28;20111;-67
2022/02/09 07:20:27;;;;;;;;;;;;;;;-142.75;100.00;78450.63;5030268;28;20410;-67
2022/02/09 07:22:56;;;;;;;10.20;6.73;;;;;;;-142.75;100.00;78448.66;5031134;28;20431;-67
2022/02/09 07:25:31;;;;;;;11.37;7.60;;;;;;;-142.75;100.00;78438.81;5031177;28;20026;-66
2022/02/09 07:28:01;;;;;;;11.53;7.57;;;;;;;-142.75;100.00;78438.81;5030922;28;20798;-66
2022/02/09 07:30:27;;;;;;;12.97;8.17;;;;;;;-142.75;100.00;78436.84;5030838;28;20025;-67
2022/02/09 07:32:53;;;;;;;;;;;;;;;-142.75;100.00;78438.81;5031226;28;20018;-66
2022/02/09 07:35:19;;;;;;;13.30;8.17;;;;;;;-142.75;100.00;78436.84;5028674;28;19975;-66
2022/02/09 07:37:44;;;;;;;13.10;8.98;;;;;;;-142.75;100.00;78440.78;5031663;28;20551;-66
2022/02/09 07:40:11;;;;;;;17.50;9.75;;;;;;;-142.75;100.00;78456.53;5030296;28;20036;-66
2022/02/09 07:45:56;;;;;;;15.47;10.40;;;;;;;-142.75;100.00;78440.78;5028094;28;20290;-65
2022/02/09 07:51:11;;;;;;;15.43;10.73;;;;;;;-142.75;100.00;78442.75;5032909;28;20037;-67
2022/02/09 07:53:45;;;;;;;17.10;10.50;;;;;;;-142.75;100.00;78446.69;5032502;28;20033;-67
2022/02/09 07:56:10;;;;;;;13.03;9.67;;;;;;;-142.75;100.00;78440.78;5032474;28;20033;-67
2022/02/09 07:58:35;;;;;;;12.55;9.13;;;;;;;-142.75;100.00;78446.69;5032219;28;20037;-67
2022/02/09 08:01:01;;;;;;;11.82;9.32;;;;;;;-142.75;100.00;78446.69;5032670;28;20018;-67
2022/02/09 08:03:27;;;;;;;12.13;8.65;;;;;;;-142.75;100.00;78444.72;5032513;28;20071;-67
2022/02/09 08:05:52;;;;;;;12.87;9.23;;;;;;;-142.75;100.00;78460.47;5032515;28;20029;-67
2022/02/09 08:08:17;;;;;;;12.48;8.77;;;;;;;-142.75;100.00;78450.63;5032233;28;20104;-68
2022/02/09 08:10:57;;;;;;;12.50;8.90;;;;;;;-142.75;100.00;78452.59;5032258;28;20060;-67
2022/02/09 08:25:44;;;;;;;14.53;8.30;;;;;;;-142.75;100.00;78428.97;5032090;28;20360;-67
2022/02/09 08:27:19;;;;;;;12.10;8.40;;;;;;;-142.75;100.00;78434.88;5031668;28;20040;-68
2022/02/09 08:30:03;;;;;;;11.97;8.63;;;;;;;-142.75;100.00;78434.88;5031818;28;20029;-68
2022/02/09 08:34:59;;;;;;;10.52;8.30;;;;;;;-142.75;100.00;78440.78;5032129;28;20037;-67
2022/02/09 08:37:24;;;;;;;12.10;8.93;;;;;;;-142.75;100.00;78436.84;5031710;28;20068;-66
2022/02/09 08:39:52;;;;;;;12.13;7.82;;;;;;;-142.75;100.00;78430.94;5031616;28;20056;-67
2022/02/09 08:42:17;;;;;;;12.40;8.83;;;;;;;-142.75;100.00;78428.97;5046412;22;20046;-67
2022/02/09 08:44:43;;;;;;;10.52;8.23;;;;;;;-142.75;100.00;78413.22;5009085;28;20106;-63
2022/02/09 08:47:09;;;;;;;12.43;8.05;;;;;;;-142.75;100.00;78411.25;5011023;28;20022;-67
2022/02/09 08:49:34;;;;;;;12.95;8.63;;;;;;;-142.75;100.00;78405.34;5011699;28;20499;-66
2022/02/09 08:52:00;;;;;;;12.88;8.90;;;;;;;-142.75;100.00;78405.34;5011850;28;20017;-67
2022/02/09 08:54:26;;;;;;;13.43;8.57;;;;;;;-142.75;100.00;78409.28;5011805;28;20029;-67
2022/02/09 08:56:56;;;;;;;;;;;;;;;-142.75;100.00;78397.44;5010871;28;20439;-67
2022/02/09 08:59:28;;;;;;;13.33;9.03;;;;;;;-142.75;100.00;78405.34;5011461;28;19921;-68
2022/02/09 09:02:01;;;;;;;16.93;8.97;;;;;;;-142.75;100.00;78411.25;5011568;28;20021;-68
2022/02/09 09:04:33;;;;;;;14.53;9.40;;;;;;;-142.75;100.00;78409.28;5011537;28;20104;-67
2022/02/09 09:07:04;;;;;;;13.90;8.80;;;;;;;-142.75;100.00;78407.31;5011470;28;20030;-68
2022/02/09 10:32:23;;;;;;;15.73;8.93;;;;;;;-142.75;100.00;78297.00;5014683;28;20043;-68
2022/02/09 10:34:39;;;;;;;14.50;9.50;;;;;;;-142.75;100.00;78310.81;5032448;28;20172;-68
2022/02/09 10:37:06;;;;;;;13.63;9.55;;;;;;;-142.75;100.00;78306.88;5034067;28;20057;-67
2022/02/09 10:39:53;;;;;;;17.02;10.30;;;;;;;-142.75;100.00;78299.00;5033847;28;20037;-66
2022/02/09 10:42:23;;;;;;;14.70;9.63;;;;;;;-142.75;100.00;78302.94;5032372;28;20025;-67
2022/02/09 10:44:54;;;;;;;20.42;10.18;;;;;;;-142.75;100.00;78318.69;5034019;28;20033;-68
2022/02/09 10:47:31;;;;;;;15.45;9.70;;;;;;;-142.75;100.00;78316.72;5032712;28;20120;-67
2022/02/09 10:50:10;;;;;;;16.10;10.32;;;;;;;-142.75;100.00;78310.81;5032269;28;20565;-68
2022/02/09 10:52:40;;;;;;;18.80;10.82;;;;;;;-142.75;100.00;78314.75;5033606;28;20522;-67
2022/02/09 10:55:28;;;;;;;18.67;10.70;;;;;;;-142.75;100.00;78320.66;5032812;28;20025;-68
2022/02/09 10:57:55;;;;;;;14.52;9.80;;;;;;;-142.75;100.00;78320.66;5033283;28;20491;-66
2022/02/09 11:00:23;;;;;;;16.48;10.68;;;;;;;-142.75;100.00;78322.63;5033683;28;20495;-67
2022/02/09 11:02:51;;;;;;;15.32;10.25;;;;;;;-142.75;100.00;78324.59;5033533;28;20040;-68
2022/02/09 11:05:19;;;;;;;19.25;10.65;;;;;;;-142.75;100.00;78312.78;5033317;28;20033;-67
2022/02/09 11:07:45;;;;;;;18.48;11.20;;;;;;;-142.75;100.00;78316.72;5032938;28;20476;-66
2022/02/09 11:10:11;;;;;;;17.25;10.90;;;;;;;-142.75;100.00;78326.56;5032985;28;20033;-64
2022/02/09 11:12:37;;;;;;;15.85;10.88;;;;;;;-142.75;100.00;78312.78;5033331;28;20447;-65
2022/02/09 11:15:06;;;;;;;17.88;11.25;;;;;;;-142.75;100.00;78295.06;5033483;28;20057;-68
2022/02/09 11:17:32;;;;;;;17.20;10.95;;;;;;;-142.75;100.00;78289.13;5033072;28;20052;-67
2022/02/09 11:19:58;;;;;;;17.13;10.82;;;;;;;-142.75;100.00;78279.28;5031701;28;20083;-65
2022/02/09 11:22:27;;;;;;;16.95;11.43;;;;;;;-142.75;100.00;78283.22;5031496;28;20033;-68
2022/02/09 11:25:16;;;;;;;17.73;10.88;;;;;;;-142.75;100.00;78265.50;5024109;28;20022;-66
2022/02/09 11:27:49;;;;;;;17.85;11.90;;;;;;;-142.75;100.00;78261.56;5013325;28;20025;-67
2022/02/09 11:30:40;;;;;;;16.60;10.98;;;;;;;-142.75;100.00;78263.53;5013348;28;20392;-67
2022/02/09 11:33:38;;;;;;;16.88;11.30;;;;;;;-142.75;100.00;78261.56;5033060;28;20096;-68
2022/02/09 11:36:05;;;;;;;18.17;10.63;;;;;;;-142.75;100.00;78259.59;5012560;28;20101;-67
2022/02/09 11:38:39;;;;;;;;;;;;;;;-142.75;100.00;78261.56;5013132;28;20095;-67
2022/02/09 11:41:18;;;;;;;16.20;10.27;;;;;;;-142.75;100.00;78263.53;5032321;28;19974;-69
2022/02/09 11:50:23;;;;;;;13.68;9.70;;;;;;;-142.75;100.00;78267.47;5018400;28;20033;-64
2022/02/09 12:11:42;;;;;;;13.02;6.80;;;;;;;-142.75;100.00;78224.16;5012606;28;20068;-68
2022/02/09 12:16:49;;;;;;;14.93;8.00;;;;;;;-142.75;100.00;78206.44;5011943;28;20033;-66
2022/02/09 12:19:27;;;;;;;19.08;8.45;;;;;;;-142.75;100.00;78212.34;5031647;28;20026;-67
2022/02/09 12:22:05;;;;;;;14.15;7.90;;;;;;;-142.75;100.00;78214.31;5030176;28;20175;-67
2022/02/09 12:24:33;;;;;;;15.32;7.80;;;;;;;-142.75;100.00;78220.22;5030323;28;20025;-67
2022/02/09 12:27:00;;;;;;;11.10;6.70;;;;;;;-142.75;100.00;78212.34;5030782;28;20475;-68
2022/02/09 12:29:37;;;;;;;12.82;7.28;;;;;;;-142.75;100.00;78224.16;5031836;28;20029;-67
2022/02/09 12:32:23;;;;;;;13.48;6.93;;;;;;;-142.75;100.00;78212.34;5031865;28;20025;-67
2022/02/09 12:35:12;;;;;;;12.50;5.87;;;;;;;-142.75;100.00;78226.13;5031923;28;20037;-67
2022/02/09 12:37:46;;;;;;;12.43;5.72;;;;;;;-142.75;100.00;78220.22;5030335;28;20026;-68
2022/02/09 12:40:17;;;;;;;12.25;6.22;;;;;;;-142.75;100.00;78212.34;5030404;28;20040;-68
2022/02/09 12:42:45;;;;;;;11.18;6.03;;;;;;;-142.75;100.00;78230.06;5031408;28;20562;-68
2022/02/09 12:45:13;;;;;;;10.15;5.75;;;;;;;-142.75;100.00;78216.28;5030384;28;20029;-68
2022/02/09 12:47:43;;;;;;;10.60;6.15;;;;;;;-142.75;100.00;78226.13;5031542;28;20025;-67
2022/02/09 12:50:14;;;;;;;12.07;6.07;;;;;;;-142.75;100.00;78220.22;5031255;28;20114;-68
2022/02/09 12:52:41;;;;;;;12.95;6.57;;;;;;;-142.75;100.00;78230.06;5031122;28;20495;-68
2022/02/09 12:55:07;;;;;;;13.52;6.32;;;;;;;-142.75;100.00;78232.03;5031489;28;20502;-67
2022/02/09 12:57:41;;;;;;;15.07;6.63;;;;;;;-142.75;100.00;78234.00;5031251;28;20025;-67
2022/02/09 13:00:27;;;;;;;12.18;6.28;;;;;;;-142.75;100.00;78220.22;5029973;28;20028;-66
2022/02/09 13:02:55;;;;;;;12.18;6.43;;;;;;;-142.75;100.00;78224.16;5031011;28;20441;-67
2022/02/09 13:05:20;;;;;;;19.83;6.43;;;;;;;-142.75;100.00;78235.97;5031418;28;20025;-68
2022/02/09 13:07:54;;;;;;;9.32;6.18;;;;;;;-142.75;100.00;78216.28;5030794;28;20510;-67
2022/02/09 13:10:28;;;;;;;9.40;5.90;;;;;;;-142.75;100.00;78212.34;5031221;28;20025;-68
2022/02/09 13:12:56;;;;;;;11.30;6.55;;;;;;;-142.75;100.00;78210.38;5031151;28;20033;-68
2022/02/09 13:15:29;;;;;;;17.02;6.40;;;;;;;-142.75;100.00;78204.47;5031152;28;20468;-67
2022/02/09 14:10:41;;;;;;;9.60;6.18;;;;;;;-142.75;100.00;78208.41;4991005;28;20038;-68
2022/02/09 14:13:16;;;;;;;12.02;6.43;;;;;;;-142.75;100.00;78212.34;5010138;28;20072;-68
2022/02/09 14:18:26;;;;;;;11.35;6.50;;;;;;;-142.75;100.00;78200.53;5010473;28;20091;-67
2022/02/09 14:23:50;;;;;;;11.30;5.88;;;;;;;-142.75;100.00;78208.41;5010790;28;20080;-68
2022/02/09 14:53:08;;;;;;;13.13;6.30;;;;;;;-142.75;100.00;78214.31;5013827;28;20100;-68
2022/02/09 14:58:24;;;;;;;12.70;6.18;;;;;;;-142.75;100.00;78234.00;5012090;28;20037;-68
2022/02/09 15:01:05;;;;;;;14.20;6.70;;;;;;;-142.75;100.00;78232.03;5029022;28;20118;-67
2022/02/09 15:11:34;;;;;;;11.90;6.68;;;;;;;-142.75;100.00;78243.84;5012183;28;20026;-67
2022/02/09 15:24:15;;;;;;;11.55;6.40;;;;;;;-142.75;100.00;78269.44;5013127;28;20026;-68
2022/02/09 15:26:43;;;;;;;12.77;6.20;;;;;;;-142.75;100.00;78269.44;5008381;28;20152;-68
2022/02/09 15:29:10;;;;;;;11.00;6.55;;;;;;;-142.75;100.00;78275.34;5012411;28;20022;-68
2022/02/09 15:32:13;;;;;;;10.10;6.35;;;;;;;-142.75;100.00;78269.44;5012977;28;20053;-68
2022/02/09 15:34:30;;;;;;;14.45;6.97;;;;;;;-142.75;100.00;78287.16;5009773;28;20462;-68
2022/02/09 15:39:51;;;;;;;14.43;6.03;;;;;;;-142.75;100.00;78283.22;5012735;28;20038;-68
2022/02/09 15:58:56;;;;;;;11.07;5.78;;;;;;;-142.75;100.00;78316.72;5012484;28;20152;-68
2022/02/09 16:22:51;;;;;;;13.75;6.85;;;;;;;-142.75;100.00;78326.56;5012632;28;20030;-68
2022/02/09 16:33:16;;;;;;;14.67;6.80;;;;;;;-142.75;100.00;78314.75;5012264;28;20068;-68
2022/02/09 16:38:38;;;;;;;17.20;6.93;;;;;;;-142.75;100.00;78314.75;5011832;28;20472;-68
2022/02/09 16:44:20;;;;;;;16.27;6.75;;;;;;;-142.75;100.00;78320.66;5006877;28;20040;-68
2022/02/09 16:46:52;;;;;;;16.10;7.38;;;;;;;-142.75;100.00;78322.63;5012438;28;20033;-69
2022/02/09 16:52:10;;;;;;;19.08;7.65;;;;;;;-142.75;100.00;78318.69;5009625;28;20045;-69
2022/02/09 17:08:28;;;;;;;16.90;7.53;;;;;;;-142.75;100.00;78306.88;5011765;28;20112;-67
2022/02/09 17:19:00;;;;;;;16.25;6.93;;;;;;;-142.75;100.00;78310.81;5011658;28;20124;-67
2022/02/09 17:21:26;;;;;;;19.60;6.93;;;;;;;-142.75;100.00;78316.72;5011803;28;20079;-68
2022/02/09 17:23:52;;;;;;;;;;;;;;;-142.75;100.00;78310.81;5011701;28;20034;-68
2022/02/09 17:26:19;;;;;;;16.88;7.30;;;;;;;-142.75;100.00;78314.75;5011256;28;19982;-68
2022/02/09 17:29:00;;;;;;;15.23;6.95;;;;;;;-142.75;100.00;78316.72;5010677;28;20030;-68
2022/02/09 17:31:48;;;;;;;19.33;7.40;;;;;;;-142.75;100.00;78308.84;5009762;28;20032;-68
2022/02/09 17:58:05;;;;;;;19.77;7.53;;;;;;;-142.75;100.00;78314.75;5010655;28;20030;-70
2022/02/09 18:00:31;;;;;;;19.27;7.63;;;;;;;-142.75;100.00;78314.75;5008471;28;20033;-69
2022/02/09 18:02:56;;;;;;;18.57;6.93;;;;;;;-142.75;100.00;78314.75;5010759;28;20388;-69
2022/02/09 18:07:55;;;;;;;18.40;7.00;;;;;;;-142.75;100.00;78330.50;5011148;28;20792;-67
2022/02/09 18:10:32;;;;;;;20.15;7.03;;;;;;;-142.75;100.00;78332.47;5009846;28;20103;-67
2022/02/09 18:15:59;;;;;;;17.10;6.97;;;;;;;-142.75;100.00;78342.31;5005439;28;20083;-68
2022/02/09 18:30:23;;;;;;;18.42;8.02;;;;;;;-142.75;100.00;78336.41;5003323;28;20049;-67
2022/02/09 18:38:07;;;;;;;18.02;8.10;;;;;;;-142.75;100.00;78326.56;4996463;28;20092;-67
2022/02/09 18:59:24;;;;;;;18.50;9.88;;;;;;;-142.75;100.00;78316.72;5007549;28;20108;-68
2022/02/09 19:04:10;;;;;;;19.38;9.02;;;;;;;-142.75;100.00;78308.84;5011085;28;20026;-68
2022/02/09 19:15:04;;;;;;;17.67;8.85;;;;;;;-142.75;100.00;78308.84;5010997;28;20111;-68
2022/02/09 19:20:59;;;;;;;18.85;9.35;;;;;;;-142.75;100.00;78299.00;4977271;28;20107;-68
2022/02/09 19:26:22;;;;;;;17.08;8.52;;;;;;;-142.75;100.00;78295.06;5011086;28;20048;-67
2022/02/09 19:47:43;;;;;;;15.02;6.78;;;;;;;-142.75;100.00;78289.13;5010421;28;20040;-69
2022/02/09 19:58:10;;;;;;;13.00;7.07;;;;;;;-142.75;100.00;78275.34;4996548;28;20116;-68
2022/02/09 20:00:37;;;;;;;12.93;6.70;;;;;;;-142.75;100.00;78271.41;5009806;28;20030;-67
2022/02/09 20:03:07;;;;;;;17.83;7.47;;;;;;;-142.75;100.00;78267.47;5025246;28;20051;-68
2022/02/09 20:05:32;;;;;;;16.08;7.68;;;;;;;-142.75;100.00;78263.53;5010078;28;20483;-67
2022/02/09 20:08:03;;;;;;;17.23;7.75;;;;;;;-142.75;100.00;78265.50;5009577;28;20065;-66
2022/02/09 20:10:28;;;;;;;27.00;8.20;;;;;;;-142.75;100.00;78273.38;5009874;28;20068;-68
2022/02/09 20:12:55;;;;;;;19.48;8.00;;;;;;;-142.75;100.00;78275.34;5009810;28;20030;-68
2022/02/09 20:15:20;;;;;;;19.95;8.30;;;;;;;-142.75;100.00;78263.53;5025466;28;20037;-67
2022/02/09 20:17:47;;;;;;;15.75;8.25;;;;;;;-142.75;100.00;78259.59;5009529;28;20026;-68
2022/02/09 20:20:21;;;;;;;17.17;8.32;;;;;;;-142.75;100.00;78259.59;5009701;28;20373;-68
2022/02/09 20:22:48;;;;;;;19.67;8.82;;;;;;;-142.75;100.00;78255.66;5008085;28;20040;-68
2022/02/09 20:25:13;;;;;;;16.85;7.90;;;;;;;-142.75;100.00;78269.44;5008244;28;20121;-67
2022/02/09 20:27:39;;;;;;;17.80;8.68;;;;;;;-142.75;100.00;78267.47;5009489;28;20104;-68
2022/02/09 20:30:09;;;;;;;18.15;9.23;;;;;;;-142.75;100.00;78261.56;5008899;28;20054;-68
2022/02/09 20:32:40;;;;;;;18.45;9.55;;;;;;;-142.75;100.00;78269.44;5009236;28;20025;-68
2022/02/09 20:35:10;;;;;;;21.10;8.95;;;;;;;-142.75;100.00;78275.34;5009382;28;20026;-68
2022/02/09 20:37:41;;;;;;;17.33;7.72;;;;;;;-142.75;100.00;78281.25;5009298;28;20499;-67
2022/02/09 20:40:12;;;;;;;16.45;8.38;;;;;;;-142.75;100.00;78287.16;5008901;28;20041;-69
2022/02/09 20:42:44;;;;;;;25.55;9.57;;;;;;;-142.75;100.00;78295.06;5008547;28;20483;-68
2022/02/09 20:45:17;;;;;;;21.33;9.57;;;;;;;-142.75;100.00;78300.97;5009826;28;20018;-68
2022/02/09 20:47:45;;;;;;;22.52;10.10;;;;;;;-142.75;100.00;78297.00;5009328;28;20495;-68
2022/02/09 20:50:11;;;;;;;24.83;10.80;;;;;;;-142.75;100.00;78287.16;5023770;28;20037;-67
2022/02/09 20:52:37;;;;;;;24.52;10.90;;;;;;;-142.75;100.00;78293.06;5007573;28;20041;-68
2022/02/09 20:55:03;;;;;;;21.73;11.23;;;;;;;-142.75;100.00;78299.00;5009254;28;20034;-68
2022/02/09 20:57:30;;;;;;;24.23;11.63;;;;;;;-142.75;100.00;78295.06;5008806;28;20024;-68
2022/02/09 21:00:05;;;;;;;25.30;13.13;;;;;;;-142.75;100.00;78293.06;5008331;28;20034;-68
2022/02/09 21:02:42;;;;;;;25.20;12.32;;;;;;;-142.75;100.00;78291.09;5061250;22;20044;-68
2022/02/09 21:05:27;;;;;;;24.85;13.55;;;;;;;-142.75;100.00;78287.16;5058933;28;20021;-68
2022/02/09 21:11:58;;;;;;;25.75;13.27;;;;;;;-142.75;100.00;78299.00;5036038;28;20547;-68
2022/02/09 21:13:49;;;;;;;26.80;12.63;;;;;;;-142.75;100.00;78295.06;5044162;28;20031;-69
2022/02/09 21:44:22;;;;;;;32.63;13.87;;;;;;;-142.75;100.00;78287.16;5029577;28;20132;-67
2022/02/09 21:54:02;;;;;;;36.77;18.77;;;;;;;-142.75;100.00;78293.06;5046094;28;20044;-68
2022/02/09 22:26:26;;;;;;;35.72;18.15;;;;;;;-142.75;100.00;78232.03;5028150;28;20116;-69
2022/02/09 22:28:34;;;;;;;33.72;18.60;;;;;;;-142.75;100.00;78224.16;5039883;28;20033;-69
2022/02/09 22:31:28;;;;;;;29.60;17.42;;;;;;;-142.75;100.00;78220.22;5037068;28;20024;-69
2022/02/09 22:55:19;;;;;;;23.48;12.82;;;;;;;-142.75;100.00;78176.88;5038615;28;20064;-69
2022/02/09 23:00:53;;;;;;;19.23;11.63;;;;;;;-142.75;100.00;78172.94;5034775;28;20037;-68
2022/02/09 23:03:25;;;;;;;19.98;11.68;;;;;;;-142.75;100.00;78167.03;5058872;28;20029;-68
2022/02/09 23:06:10;;;;;;;17.20;11.40;;;;;;;-142.75;100.00;78176.88;5043445;28;20483;-69
2022/02/09 23:09:35;;;;;;;19.08;11.00;;;;;;;-142.75;100.00;78172.94;5032161;28;20112;-70
2022/02/09 23:11:46;;;;;;;17.50;10.65;;;;;;;-142.75;100.00;78174.91;5035719;28;20503;-68
2022/02/09 23:17:21;;;;;;;20.08;11.65;;;;;;;-142.75;100.00;78169.00;5045212;28;20030;-69
